Ajax, Canada
Current Conditions -  °F | °C
As of 9:00 PM on Friday 21 Nov 2014 (Local Time) from CYKZ Reporting Station
Few Clouds Few Clouds  
Wind Chill: 19°   Ceiling: Unl
Heat Index: 19°   Visibility: 15mi
Dew Point:   Wind: 3mph
Humidity: 58%   Direction: 240°WSW
Pressure: 30.38"   Gusts: NA
Location:  43.85°N, 79.02°W
Report Text: CYKZ 220200Z 24003KT 15SM FEW110 FEW120 M07/M14 A3038 RMKAC1AS1 SLP301
Loading
Personal Weather Stations






























Interactive Weather Map New forecast layout! Learn more

10-Day Weather Forecast

Advertisements
Track Severe Weather on mobile